Airfield :







YOU CAN JOIN US ON...

 
LOGIN :

Register | Disclaimer

   EN    FR    IT 

 









Legend :    VFR   Marginal VFR   IFR   Intensive IFR   Very Intensive IFR
Visi :
Ceiling :
>= 8 km
>= 3000ft
5 to 8 km
1000 to 3000 ft
1500m to 5 km
500 to 1000 ft
800 to 1500m
200 to 500 ft
< 800m
< 200 ft
Symbols :   Thunderstorms  Fog  Heavy snow  Heavy precipitations  Wind > 20 kt






- Airport Elevation : 38 ft
- IATA code : YMH


CYMH - Mary's Harbour

CURRENT METAR :
  • 230921Z AUTO 12004KT 080V160 2 1/4SM -RA BR OVC006 08/07 A2979 RMK SLP089

EXPIRED METARs :
  • 230904Z AUTO 14005KT 7SM -RA BKN006 BKN010 OVC032 08/07 A2980 RMK SLP092
  • 230855Z AUTO 15007KT 3SM -RA BR BKN008 BKN018 BKN032 OVC040 08/07 A2980 RMK SLP094
  • 230846Z AUTO 14005KT 3SM -RA BR FEW010 BKN018 BKN032 OVC040 08/07 A2981 RMK SLP095
  • 230814Z AUTO 13006KT 100V160 4SM RA BR BKN020 BKN028 OVC060 09/08 A2983 RMK SLP104
  • 230800Z AUTO 14005KT 110V170 5SM -RA BR SCT028 BKN042 OVC065 09/08 A2984 RMK SLP106
  • 230700Z AUTO 16006KT 9SM -RA OVC130 09/06 A2987 RMK PRESFR SLP115
  • 230621Z AUTO 16004KT 9SM -RA FEW100 OVC120 10/05 A2990 RMK SLP126

TAF AMD TAF CYMH
Valid from the 23 at 09:00 until the 23 at 21:00 UTC


230906Z 2309/2321 14008KT 2SM SHRA BR OVC004
TEMPO 2309/2316 6SM -RA BR OVC010
PROB30 2314/2316 VRB30G40KT 1SM TSRA BR OVC004CB
FM231600 16010KT 3SM -DZ BR OVC006
TEMPO 2316/2321 P6SM NSW OVC012
PROB40 2316/2321 2SM -DZ BR OVC004 RMK FCST BASED ON AUTO OBS. NXT FCST BY 231400Z
CZQX FIR / North America



MET'MAP, your aeronautical weather chart ! - Copyright ORBIFLY December 2007 - Disclaimer

ORBIFLY MET'MAP TEAM :

Programming & Development : Alexandra Zaïnal
Concept & original design : Baudouin d'Aumeries
Assistance for programming : Marc-Olivier Méhu
Technical & hardware support : Manuel Goepfert

Contact : metmap@orbifly.com




SOURCES & CREDITS :

   NOAA